Terminal Aerodrome Forecast
Issued by NWS San Angelo, TX

Home | Current Version | Previous Version | Text Only | Print | Product List | Glossary On
Versions: 1 2 3 4 5 6 7 8 9 10 11 12 13 14 15 16 17 18 19 20 21
675
FTUS44 KSJT 061518 AAB
TAFSJT
TAF AMD
KSJT 061518Z 0615/0712 33012G22KT P6SM BKN025
     FM070000 02004KT P6SM OVC050
     FM070500 08005KT P6SM BKN012
     FM070800 11004KT P6SM BKN009=

USA.gov is the U.S. government's official web portal to all federal, state and local government web resources and services.